sensor_id;sensor_type;location;lat;lon;timestamp;P1;durP1;ratioP1;P2;durP2;ratioP2
23494;SDS011;26107;50.832;2.950;2022-12-29T00:14:59;0.55;;;0.50;;
23494;SDS011;26107;50.832;2.950;2022-12-29T00:30:21;1.75;;;0.70;;
23494;SDS011;26107;50.832;2.950;2022-12-29T00:45:41;4.07;;;0.68;;
23494;SDS011;26107;50.832;2.950;2022-12-29T01:00:42;1.92;;;0.63;;
23494;SDS011;26107;50.832;2.950;2022-12-29T01:15:48;5.30;;;1.45;;
23494;SDS011;26107;50.832;2.950;2022-12-29T01:30:50;3.45;;;1.00;;
23494;SDS011;26107;50.832;2.950;2022-12-29T01:45:51;3.45;;;2.08;;
23494;SDS011;26107;50.832;2.950;2022-12-29T02:00:53;5.85;;;1.00;;
23494;SDS011;26107;50.832;2.950;2022-12-29T02:46:18;6.38;;;1.60;;
23494;SDS011;26107;50.832;2.950;2022-12-29T03:31:40;7.03;;;1.52;;
23494;SDS011;26107;50.832;2.950;2022-12-29T03:46:42;6.28;;;1.48;;
23494;SDS011;26107;50.832;2.950;2022-12-29T04:01:42;6.70;;;1.42;;
23494;SDS011;26107;50.832;2.950;2022-12-29T04:16:43;4.28;;;1.33;;
23494;SDS011;26107;50.832;2.950;2022-12-29T04:31:44;5.68;;;1.13;;
23494;SDS011;26107;50.832;2.950;2022-12-29T04:46:44;7.30;;;1.83;;
23494;SDS011;26107;50.832;2.950;2022-12-29T05:01:45;6.22;;;1.52;;
23494;SDS011;26107;50.832;2.950;2022-12-29T05:16:45;10.07;;;2.03;;
23494;SDS011;26107;50.832;2.950;2022-12-29T05:31:46;6.97;;;1.63;;
23494;SDS011;26107;50.832;2.950;2022-12-29T05:46:46;5.40;;;1.52;;
23494;SDS011;26107;50.832;2.950;2022-12-29T06:01:47;9.20;;;2.17;;
23494;SDS011;26107;50.832;2.950;2022-12-29T06:16:48;13.32;;;2.35;;
23494;SDS011;26107;50.832;2.950;2022-12-29T06:31:48;15.15;;;2.50;;
23494;SDS011;26107;50.832;2.950;2022-12-29T06:46:50;14.15;;;2.28;;
23494;SDS011;26107;50.832;2.950;2022-12-29T07:01:51;12.57;;;1.80;;
23494;SDS011;26107;50.832;2.950;2022-12-29T07:16:52;11.37;;;1.73;;
23494;SDS011;26107;50.832;2.950;2022-12-29T07:31:53;8.55;;;1.85;;
23494;SDS011;26107;50.832;2.950;2022-12-29T07:46:53;7.82;;;2.00;;
23494;SDS011;26107;50.832;2.950;2022-12-29T08:01:54;10.60;;;2.28;;
23494;SDS011;26107;50.832;2.950;2022-12-29T08:16:55;19.25;;;2.65;;
23494;SDS011;26107;50.832;2.950;2022-12-29T08:31:57;15.85;;;2.80;;
23494;SDS011;26107;50.832;2.950;2022-12-29T08:46:57;20.42;;;3.22;;
23494;SDS011;26107;50.832;2.950;2022-12-29T09:01:58;14.02;;;2.60;;
23494;SDS011;26107;50.832;2.950;2022-12-29T09:16:59;10.80;;;2.72;;
23494;SDS011;26107;50.832;2.950;2022-12-29T09:32:18;13.75;;;2.75;;
23494;SDS011;26107;50.832;2.950;2022-12-29T09:47:18;16.25;;;3.05;;
23494;SDS011;26107;50.832;2.950;2022-12-29T10:02:41;11.13;;;1.95;;
23494;SDS011;26107;50.832;2.950;2022-12-29T10:17:49;7.00;;;1.25;;
23494;SDS011;26107;50.832;2.950;2022-12-29T10:33:15;12.68;;;2.20;;
23494;SDS011;26107;50.832;2.950;2022-12-29T10:48:22;6.25;;;1.65;;
23494;SDS011;26107;50.832;2.950;2022-12-29T11:03:35;6.67;;;2.27;;
23494;SDS011;26107;50.832;2.950;2022-12-29T11:18:48;22.48;;;4.10;;
23494;SDS011;26107;50.832;2.950;2022-12-29T11:33:49;14.80;;;3.33;;
23494;SDS011;26107;50.832;2.950;2022-12-29T11:48:49;9.27;;;1.98;;
23494;SDS011;26107;50.832;2.950;2022-12-29T12:04:10;9.45;;;1.75;;
23494;SDS011;26107;50.832;2.950;2022-12-29T12:19:31;11.27;;;1.93;;
23494;SDS011;26107;50.832;2.950;2022-12-29T12:34:43;5.10;;;1.13;;
23494;SDS011;26107;50.832;2.950;2022-12-29T13:05:29;1.33;;;0.60;;
23494;SDS011;26107;50.832;2.950;2022-12-29T13:20:45;19.73;;;1.90;;
23494;SDS011;26107;50.832;2.950;2022-12-29T13:36:27;6.53;;;1.92;;
23494;SDS011;26107;50.832;2.950;2022-12-29T13:51:35;5.63;;;1.07;;
23494;SDS011;26107;50.832;2.950;2022-12-29T14:06:41;7.25;;;1.25;;
23494;SDS011;26107;50.832;2.950;2022-12-29T14:22:02;8.32;;;1.75;;
23494;SDS011;26107;50.832;2.950;2022-12-29T14:37:04;10.00;;;1.52;;
23494;SDS011;26107;50.832;2.950;2022-12-29T14:52:52;5.22;;;1.15;;
23494;SDS011;26107;50.832;2.950;2022-12-29T15:07:57;8.90;;;1.75;;
23494;SDS011;26107;50.832;2.950;2022-12-29T15:23:03;10.80;;;1.75;;
23494;SDS011;26107;50.832;2.950;2022-12-29T15:38:15;6.30;;;1.90;;
23494;SDS011;26107;50.832;2.950;2022-12-29T15:53:24;10.00;;;1.80;;
23494;SDS011;26107;50.832;2.950;2022-12-29T16:08:33;10.40;;;2.10;;
23494;SDS011;26107;50.832;2.950;2022-12-29T16:23:36;17.00;;;3.58;;
23494;SDS011;26107;50.832;2.950;2022-12-29T16:38:37;13.00;;;2.30;;
23494;SDS011;26107;50.832;2.950;2022-12-29T16:53:38;15.25;;;2.38;;
23494;SDS011;26107;50.832;2.950;2022-12-29T17:08:42;15.57;;;2.45;;
23494;SDS011;26107;50.832;2.950;2022-12-29T17:23:43;10.40;;;2.40;;
23494;SDS011;26107;50.832;2.950;2022-12-29T17:38:44;10.65;;;2.72;;
23494;SDS011;26107;50.832;2.950;2022-12-29T17:53:45;8.48;;;1.48;;
23494;SDS011;26107;50.832;2.950;2022-12-29T18:08:46;16.55;;;1.98;;
23494;SDS011;26107;50.832;2.950;2022-12-29T18:23:47;5.65;;;1.55;;
23494;SDS011;26107;50.832;2.950;2022-12-29T18:38:48;6.28;;;1.73;;
23494;SDS011;26107;50.832;2.950;2022-12-29T18:53:51;6.32;;;2.00;;
23494;SDS011;26107;50.832;2.950;2022-12-29T19:08:52;9.80;;;2.15;;
23494;SDS011;26107;50.832;2.950;2022-12-29T19:23:53;5.47;;;1.38;;
23494;SDS011;26107;50.832;2.950;2022-12-29T19:38:54;8.88;;;2.22;;
23494;SDS011;26107;50.832;2.950;2022-12-29T19:53:55;8.98;;;1.33;;
23494;SDS011;26107;50.832;2.950;2022-12-29T20:08:57;5.78;;;1.38;;
23494;SDS011;26107;50.832;2.950;2022-12-29T20:24:01;6.32;;;1.25;;
23494;SDS011;26107;50.832;2.950;2022-12-29T20:39:03;3.88;;;1.25;;
23494;SDS011;26107;50.832;2.950;2022-12-29T20:54:06;7.93;;;1.40;;
23494;SDS011;26107;50.832;2.950;2022-12-29T21:09:07;7.45;;;1.02;;
23494;SDS011;26107;50.832;2.950;2022-12-29T21:24:07;10.07;;;1.63;;
23494;SDS011;26107;50.832;2.950;2022-12-29T21:39:08;13.25;;;1.67;;
23494;SDS011;26107;50.832;2.950;2022-12-29T21:54:09;6.10;;;1.63;;
23494;SDS011;26107;50.832;2.950;2022-12-29T22:09:28;10.10;;;2.23;;
23494;SDS011;26107;50.832;2.950;2022-12-29T22:24:47;15.23;;;2.17;;
23494;SDS011;26107;50.832;2.950;2022-12-29T22:39:48;14.63;;;2.67;;
23494;SDS011;26107;50.832;2.950;2022-12-29T22:54:49;21.35;;;2.63;;
23494;SDS011;26107;50.832;2.950;2022-12-29T23:09:49;13.10;;;2.35;;
23494;SDS011;26107;50.832;2.950;2022-12-29T23:24:50;10.30;;;2.00;;
23494;SDS011;26107;50.832;2.950;2022-12-29T23:39:51;7.55;;;2.40;;
23494;SDS011;26107;50.832;2.950;2022-12-29T23:54:51;12.80;;;2.60;;
